sensor_id;sensor_type;location;lat;lon;timestamp;temperature;humidity
43991;DHT22;29654;50.784;20.604;2024-01-07T00:04:28;3.30;63.30
43991;DHT22;29654;50.784;20.604;2024-01-07T00:09:32;3.30;63.40
43991;DHT22;29654;50.784;20.604;2024-01-07T00:14:35;3.30;63.30
43991;DHT22;29654;50.784;20.604;2024-01-07T00:19:37;3.30;63.30
43991;DHT22;29654;50.784;20.604;2024-01-07T00:24:42;3.30;63.10
43991;DHT22;29654;50.784;20.604;2024-01-07T00:29:45;3.20;62.90
43991;DHT22;29654;50.784;20.604;2024-01-07T00:34:48;3.20;63.00
43991;DHT22;29654;50.784;20.604;2024-01-07T00:39:52;3.20;63.00
43991;DHT22;29654;50.784;20.604;2024-01-07T00:44:55;3.10;62.80
43991;DHT22;29654;50.784;20.604;2024-01-07T00:49:57;3.00;62.90
43991;DHT22;29654;50.784;20.604;2024-01-07T00:55:02;2.90;63.00
43991;DHT22;29654;50.784;20.604;2024-01-07T01:00:06;2.90;63.20
43991;DHT22;29654;50.784;20.604;2024-01-07T01:05:09;2.80;63.00
43991;DHT22;29654;50.784;20.604;2024-01-07T01:10:14;2.80;63.10
43991;DHT22;29654;50.784;20.604;2024-01-07T01:15:18;2.70;63.30
43991;DHT22;29654;50.784;20.604;2024-01-07T01:20:20;2.70;63.10
43991;DHT22;29654;50.784;20.604;2024-01-07T01:25:25;2.70;63.10
43991;DHT22;29654;50.784;20.604;2024-01-07T01:30:28;2.60;63.20
43991;DHT22;29654;50.784;20.604;2024-01-07T01:35:34;2.60;63.20
43991;DHT22;29654;50.784;20.604;2024-01-07T01:40:38;2.50;63.20
43991;DHT22;29654;50.784;20.604;2024-01-07T01:45:41;2.50;63.20
43991;DHT22;29654;50.784;20.604;2024-01-07T01:50:43;2.50;63.10
43991;DHT22;29654;50.784;20.604;2024-01-07T01:55:48;2.40;63.20
43991;DHT22;29654;50.784;20.604;2024-01-07T02:00:51;2.40;63.10
43991;DHT22;29654;50.784;20.604;2024-01-07T02:05:54;2.40;63.00
43991;DHT22;29654;50.784;20.604;2024-01-07T02:10:59;2.30;63.20
43991;DHT22;29654;50.784;20.604;2024-01-07T02:16:16;2.30;63.30
43991;DHT22;29654;50.784;20.604;2024-01-07T02:21:19;2.30;63.40
43991;DHT22;29654;50.784;20.604;2024-01-07T02:26:24;2.30;63.30
43991;DHT22;29654;50.784;20.604;2024-01-07T02:31:27;2.30;62.90
43991;DHT22;29654;50.784;20.604;2024-01-07T02:36:30;2.30;63.50
43991;DHT22;29654;50.784;20.604;2024-01-07T02:41:34;2.30;63.30
43991;DHT22;29654;50.784;20.604;2024-01-07T02:46:38;2.30;63.30
43991;DHT22;29654;50.784;20.604;2024-01-07T02:51:40;2.30;63.30
43991;DHT22;29654;50.784;20.604;2024-01-07T02:56:45;2.30;63.20
43991;DHT22;29654;50.784;20.604;2024-01-07T03:01:47;2.30;63.30
43991;DHT22;29654;50.784;20.604;2024-01-07T03:06:50;2.30;63.20
43991;DHT22;29654;50.784;20.604;2024-01-07T03:11:54;2.30;63.30
43991;DHT22;29654;50.784;20.604;2024-01-07T03:16:57;2.30;63.30
43991;DHT22;29654;50.784;20.604;2024-01-07T03:22:00;2.30;63.20
43991;DHT22;29654;50.784;20.604;2024-01-07T03:27:04;2.30;63.20
43991;DHT22;29654;50.784;20.604;2024-01-07T03:32:07;2.30;63.30
43991;DHT22;29654;50.784;20.604;2024-01-07T03:37:10;2.30;63.30
43991;DHT22;29654;50.784;20.604;2024-01-07T03:42:14;2.30;63.20
43991;DHT22;29654;50.784;20.604;2024-01-07T03:47:17;2.40;63.10
43991;DHT22;29654;50.784;20.604;2024-01-07T03:52:19;2.40;63.20
43991;DHT22;29654;50.784;20.604;2024-01-07T03:57:23;2.30;62.90
43991;DHT22;29654;50.784;20.604;2024-01-07T04:02:26;2.30;62.90
43991;DHT22;29654;50.784;20.604;2024-01-07T04:07:29;2.30;62.90
43991;DHT22;29654;50.784;20.604;2024-01-07T04:12:38;2.20;63.00
43991;DHT22;29654;50.784;20.604;2024-01-07T04:17:47;2.20;63.20
43991;DHT22;29654;50.784;20.604;2024-01-07T04:22:50;2.20;63.10
43991;DHT22;29654;50.784;20.604;2024-01-07T04:27:54;2.20;63.20
43991;DHT22;29654;50.784;20.604;2024-01-07T04:32:57;2.20;63.20
43991;DHT22;29654;50.784;20.604;2024-01-07T04:38:00;2.20;63.20
43991;DHT22;29654;50.784;20.604;2024-01-07T04:43:04;2.20;63.10
43991;DHT22;29654;50.784;20.604;2024-01-07T04:48:07;2.30;63.00
43991;DHT22;29654;50.784;20.604;2024-01-07T04:53:10;2.30;63.00
43991;DHT22;29654;50.784;20.604;2024-01-07T04:58:14;2.20;62.90
43991;DHT22;29654;50.784;20.604;2024-01-07T05:03:16;2.20;63.00
43991;DHT22;29654;50.784;20.604;2024-01-07T05:08:19;2.30;63.00
43991;DHT22;29654;50.784;20.604;2024-01-07T05:13:23;2.30;62.90
43991;DHT22;29654;50.784;20.604;2024-01-07T05:18:26;2.20;63.00
43991;DHT22;29654;50.784;20.604;2024-01-07T05:23:29;2.20;62.90
43991;DHT22;29654;50.784;20.604;2024-01-07T05:28:33;2.20;62.70
43991;DHT22;29654;50.784;20.604;2024-01-07T05:33:35;2.20;63.00
43991;DHT22;29654;50.784;20.604;2024-01-07T05:38:38;2.20;63.00
43991;DHT22;29654;50.784;20.604;2024-01-07T05:43:42;2.20;62.90
43991;DHT22;29654;50.784;20.604;2024-01-07T05:48:47;2.20;63.00
43991;DHT22;29654;50.784;20.604;2024-01-07T05:53:50;2.20;63.00
43991;DHT22;29654;50.784;20.604;2024-01-07T05:58:54;2.20;62.90
43991;DHT22;29654;50.784;20.604;2024-01-07T06:03:57;2.20;62.90
43991;DHT22;29654;50.784;20.604;2024-01-07T06:08:59;2.20;62.90
43991;DHT22;29654;50.784;20.604;2024-01-07T06:14:04;2.20;62.90
43991;DHT22;29654;50.784;20.604;2024-01-07T06:19:07;2.20;62.80
43991;DHT22;29654;50.784;20.604;2024-01-07T06:24:10;2.20;62.80
43991;DHT22;29654;50.784;20.604;2024-01-07T06:29:14;2.20;63.70
43991;DHT22;29654;50.784;20.604;2024-01-07T06:34:16;2.10;62.90
43991;DHT22;29654;50.784;20.604;2024-01-07T06:39:19;2.10;62.80
43991;DHT22;29654;50.784;20.604;2024-01-07T06:44:23;2.10;62.60
43991;DHT22;29654;50.784;20.604;2024-01-07T06:49:26;2.10;62.80
43991;DHT22;29654;50.784;20.604;2024-01-07T06:54:28;2.10;62.80
43991;DHT22;29654;50.784;20.604;2024-01-07T06:59:33;2.00;62.80
43991;DHT22;29654;50.784;20.604;2024-01-07T07:04:35;2.00;63.10
43991;DHT22;29654;50.784;20.604;2024-01-07T07:09:38;2.10;63.00
43991;DHT22;29654;50.784;20.604;2024-01-07T07:14:42;2.10;63.10
43991;DHT22;29654;50.784;20.604;2024-01-07T07:19:45;2.10;62.80
43991;DHT22;29654;50.784;20.604;2024-01-07T07:24:47;2.10;62.80
43991;DHT22;29654;50.784;20.604;2024-01-07T07:29:51;2.10;62.70
43991;DHT22;29654;50.784;20.604;2024-01-07T07:34:54;2.00;62.90
43991;DHT22;29654;50.784;20.604;2024-01-07T07:39:57;2.00;62.90
43991;DHT22;29654;50.784;20.604;2024-01-07T07:45:01;2.00;62.90
43991;DHT22;29654;50.784;20.604;2024-01-07T07:50:07;2.00;63.00
43991;DHT22;29654;50.784;20.604;2024-01-07T07:55:11;2.00;63.20
43991;DHT22;29654;50.784;20.604;2024-01-07T08:00:15;2.00;63.20
43991;DHT22;29654;50.784;20.604;2024-01-07T08:05:18;2.00;63.20
43991;DHT22;29654;50.784;20.604;2024-01-07T08:10:21;2.00;63.40
43991;DHT22;29654;50.784;20.604;2024-01-07T08:15:26;2.10;63.70
43991;DHT22;29654;50.784;20.604;2024-01-07T08:20:28;2.20;63.60
43991;DHT22;29654;50.784;20.604;2024-01-07T08:25:31;2.30;63.70
43991;DHT22;29654;50.784;20.604;2024-01-07T08:30:35;2.30;63.70
43991;DHT22;29654;50.784;20.604;2024-01-07T08:35:38;2.40;63.60
43991;DHT22;29654;50.784;20.604;2024-01-07T08:40:41;2.50;63.70
43991;DHT22;29654;50.784;20.604;2024-01-07T08:45:45;2.60;63.70
43991;DHT22;29654;50.784;20.604;2024-01-07T08:50:48;2.60;63.70
43991;DHT22;29654;50.784;20.604;2024-01-07T08:55:51;2.70;63.50
43991;DHT22;29654;50.784;20.604;2024-01-07T09:00:55;2.80;63.50
43991;DHT22;29654;50.784;20.604;2024-01-07T09:05:58;2.80;63.50
43991;DHT22;29654;50.784;20.604;2024-01-07T09:11:04;2.80;64.30
43991;DHT22;29654;50.784;20.604;2024-01-07T09:16:09;2.90;63.50
43991;DHT22;29654;50.784;20.604;2024-01-07T09:21:12;2.90;63.70
43991;DHT22;29654;50.784;20.604;2024-01-07T09:26:19;3.00;63.80
43991;DHT22;29654;50.784;20.604;2024-01-07T09:31:23;3.10;64.10
43991;DHT22;29654;50.784;20.604;2024-01-07T09:36:27;3.20;64.10
43991;DHT22;29654;50.784;20.604;2024-01-07T09:41:30;3.40;63.90
43991;DHT22;29654;50.784;20.604;2024-01-07T09:46:37;3.40;63.70
43991;DHT22;29654;50.784;20.604;2024-01-07T09:51:45;3.50;63.20
43991;DHT22;29654;50.784;20.604;2024-01-07T09:56:52;3.50;63.20
43991;DHT22;29654;50.784;20.604;2024-01-07T10:01:59;3.40;63.10
43991;DHT22;29654;50.784;20.604;2024-01-07T10:07:02;3.40;63.10
43991;DHT22;29654;50.784;20.604;2024-01-07T10:12:07;3.30;63.30
43991;DHT22;29654;50.784;20.604;2024-01-07T10:17:17;3.40;63.60
43991;DHT22;29654;50.784;20.604;2024-01-07T10:22:20;3.50;63.90
43991;DHT22;29654;50.784;20.604;2024-01-07T10:27:23;3.60;63.50
43991;DHT22;29654;50.784;20.604;2024-01-07T10:32:27;3.60;63.40
43991;DHT22;29654;50.784;20.604;2024-01-07T10:37:30;3.60;63.10
43991;DHT22;29654;50.784;20.604;2024-01-07T10:42:34;3.60;63.10
43991;DHT22;29654;50.784;20.604;2024-01-07T10:47:40;3.50;62.80
43991;DHT22;29654;50.784;20.604;2024-01-07T10:52:46;3.50;62.90
43991;DHT22;29654;50.784;20.604;2024-01-07T10:57:51;3.50;63.00
43991;DHT22;29654;50.784;20.604;2024-01-07T11:03:06;3.40;62.50
43991;DHT22;29654;50.784;20.604;2024-01-07T11:08:18;3.30;62.60
43991;DHT22;29654;50.784;20.604;2024-01-07T11:13:34;3.20;62.60
43991;DHT22;29654;50.784;20.604;2024-01-07T11:18:40;3.00;62.70
43991;DHT22;29654;50.784;20.604;2024-01-07T11:23:53;2.90;62.90
43991;DHT22;29654;50.784;20.604;2024-01-07T11:28:56;2.90;63.00
43991;DHT22;29654;50.784;20.604;2024-01-07T11:34:00;2.80;62.80
43991;DHT22;29654;50.784;20.604;2024-01-07T11:39:03;2.70;62.90
43991;DHT22;29654;50.784;20.604;2024-01-07T11:44:09;2.60;63.20
43991;DHT22;29654;50.784;20.604;2024-01-07T11:49:18;2.60;63.60
43991;DHT22;29654;50.784;20.604;2024-01-07T11:54:21;2.70;63.30
43991;DHT22;29654;50.784;20.604;2024-01-07T11:59:24;2.60;63.00
43991;DHT22;29654;50.784;20.604;2024-01-07T12:04:28;2.60;63.00
43991;DHT22;29654;50.784;20.604;2024-01-07T12:09:31;2.60;63.00
43991;DHT22;29654;50.784;20.604;2024-01-07T12:14:34;2.50;63.10
43991;DHT22;29654;50.784;20.604;2024-01-07T12:19:40;2.50;62.90
43991;DHT22;29654;50.784;20.604;2024-01-07T12:24:43;2.40;62.70
43991;DHT22;29654;50.784;20.604;2024-01-07T12:29:55;2.40;62.90
43991;DHT22;29654;50.784;20.604;2024-01-07T12:35:00;2.40;63.20
43991;DHT22;29654;50.784;20.604;2024-01-07T12:40:05;2.30;63.20
43991;DHT22;29654;50.784;20.604;2024-01-07T12:45:10;2.30;62.90
43991;DHT22;29654;50.784;20.604;2024-01-07T12:50:17;2.20;62.90
43991;DHT22;29654;50.784;20.604;2024-01-07T12:55:22;2.20;63.20
43991;DHT22;29654;50.784;20.604;2024-01-07T13:00:26;2.20;63.00
43991;DHT22;29654;50.784;20.604;2024-01-07T13:05:31;2.20;63.10
43991;DHT22;29654;50.784;20.604;2024-01-07T13:10:33;2.20;62.90
43991;DHT22;29654;50.784;20.604;2024-01-07T13:15:36;2.20;63.00
43991;DHT22;29654;50.784;20.604;2024-01-07T13:20:40;2.20;62.90
43991;DHT22;29654;50.784;20.604;2024-01-07T13:25:45;2.20;62.80
43991;DHT22;29654;50.784;20.604;2024-01-07T13:30:48;2.10;62.70
43991;DHT22;29654;50.784;20.604;2024-01-07T13:35:52;2.10;62.70
43991;DHT22;29654;50.784;20.604;2024-01-07T13:40:55;2.00;62.70
43991;DHT22;29654;50.784;20.604;2024-01-07T13:45:58;1.90;62.90
43991;DHT22;29654;50.784;20.604;2024-01-07T13:51:02;1.90;62.90
43991;DHT22;29654;50.784;20.604;2024-01-07T13:56:05;1.80;62.50
43991;DHT22;29654;50.784;20.604;2024-01-07T14:01:09;1.80;62.60
43991;DHT22;29654;50.784;20.604;2024-01-07T14:06:13;1.70;62.40
43991;DHT22;29654;50.784;20.604;2024-01-07T14:11:15;1.60;62.30
43991;DHT22;29654;50.784;20.604;2024-01-07T14:16:19;1.50;62.00
43991;DHT22;29654;50.784;20.604;2024-01-07T14:21:23;1.40;62.30
43991;DHT22;29654;50.784;20.604;2024-01-07T14:26:26;1.30;62.30
43991;DHT22;29654;50.784;20.604;2024-01-07T14:31:29;1.20;63.00
43991;DHT22;29654;50.784;20.604;2024-01-07T14:36:33;1.10;62.40
43991;DHT22;29654;50.784;20.604;2024-01-07T14:41:36;1.00;62.50
43991;DHT22;29654;50.784;20.604;2024-01-07T14:46:38;1.00;62.40
43991;DHT22;29654;50.784;20.604;2024-01-07T14:51:42;0.90;62.50
43991;DHT22;29654;50.784;20.604;2024-01-07T14:56:45;0.90;62.50
43991;DHT22;29654;50.784;20.604;2024-01-07T15:01:48;0.80;63.10
43991;DHT22;29654;50.784;20.604;2024-01-07T15:06:54;0.80;62.80
43991;DHT22;29654;50.784;20.604;2024-01-07T15:11:57;0.80;62.80
43991;DHT22;29654;50.784;20.604;2024-01-07T15:17:00;0.80;63.60
43991;DHT22;29654;50.784;20.604;2024-01-07T15:22:04;0.90;62.60
43991;DHT22;29654;50.784;20.604;2024-01-07T15:27:07;0.90;62.50
43991;DHT22;29654;50.784;20.604;2024-01-07T15:32:09;0.90;62.30
43991;DHT22;29654;50.784;20.604;2024-01-07T15:37:14;0.90;62.30
43991;DHT22;29654;50.784;20.604;2024-01-07T15:42:17;0.90;62.50
43991;DHT22;29654;50.784;20.604;2024-01-07T15:47:20;0.90;63.30
43991;DHT22;29654;50.784;20.604;2024-01-07T15:52:26;0.90;62.30
43991;DHT22;29654;50.784;20.604;2024-01-07T15:57:29;0.80;62.40
43991;DHT22;29654;50.784;20.604;2024-01-07T16:02:32;0.80;62.30
43991;DHT22;29654;50.784;20.604;2024-01-07T16:07:36;0.70;62.30
43991;DHT22;29654;50.784;20.604;2024-01-07T16:12:39;0.70;62.50
43991;DHT22;29654;50.784;20.604;2024-01-07T16:17:43;0.60;62.60
43991;DHT22;29654;50.784;20.604;2024-01-07T16:22:48;0.60;62.60
43991;DHT22;29654;50.784;20.604;2024-01-07T16:27:50;0.50;62.60
43991;DHT22;29654;50.784;20.604;2024-01-07T16:32:53;0.50;62.60
43991;DHT22;29654;50.784;20.604;2024-01-07T16:37:57;0.50;62.70
43991;DHT22;29654;50.784;20.604;2024-01-07T16:43:00;0.50;62.80
43991;DHT22;29654;50.784;20.604;2024-01-07T16:48:03;0.50;62.70
43991;DHT22;29654;50.784;20.604;2024-01-07T16:53:08;0.50;62.70
43991;DHT22;29654;50.784;20.604;2024-01-07T16:58:11;0.60;62.70
43991;DHT22;29654;50.784;20.604;2024-01-07T17:03:13;0.60;62.60
43991;DHT22;29654;50.784;20.604;2024-01-07T17:08:18;0.60;62.50
43991;DHT22;29654;50.784;20.604;2024-01-07T17:13:20;0.60;62.30
43991;DHT22;29654;50.784;20.604;2024-01-07T17:18:23;0.60;62.40
43991;DHT22;29654;50.784;20.604;2024-01-07T17:23:27;0.60;62.30
43991;DHT22;29654;50.784;20.604;2024-01-07T17:28:31;0.60;62.20
43991;DHT22;29654;50.784;20.604;2024-01-07T17:33:34;0.60;62.00
43991;DHT22;29654;50.784;20.604;2024-01-07T17:38:39;0.60;62.00
43991;DHT22;29654;50.784;20.604;2024-01-07T17:43:42;0.60;62.10
43991;DHT22;29654;50.784;20.604;2024-01-07T17:48:45;0.50;62.10
43991;DHT22;29654;50.784;20.604;2024-01-07T17:53:51;0.50;62.00
43991;DHT22;29654;50.784;20.604;2024-01-07T17:58:54;0.50;62.10
43991;DHT22;29654;50.784;20.604;2024-01-07T18:03:58;0.40;62.30
43991;DHT22;29654;50.784;20.604;2024-01-07T18:09:05;0.40;62.20
43991;DHT22;29654;50.784;20.604;2024-01-07T18:14:08;0.40;62.10
43991;DHT22;29654;50.784;20.604;2024-01-07T18:19:13;0.30;62.10
43991;DHT22;29654;50.784;20.604;2024-01-07T18:24:17;0.30;62.10
43991;DHT22;29654;50.784;20.604;2024-01-07T18:29:21;0.30;62.10
43991;DHT22;29654;50.784;20.604;2024-01-07T18:34:24;0.20;62.10
43991;DHT22;29654;50.784;20.604;2024-01-07T18:39:28;0.20;62.20
43991;DHT22;29654;50.784;20.604;2024-01-07T18:44:32;0.20;62.10
43991;DHT22;29654;50.784;20.604;2024-01-07T18:49:37;0.20;62.10
43991;DHT22;29654;50.784;20.604;2024-01-07T18:54:43;0.20;62.10
43991;DHT22;29654;50.784;20.604;2024-01-07T18:59:46;0.20;61.80
43991;DHT22;29654;50.784;20.604;2024-01-07T19:04:51;0.20;61.80
43991;DHT22;29654;50.784;20.604;2024-01-07T19:09:59;0.10;61.70
43991;DHT22;29654;50.784;20.604;2024-01-07T19:15:02;0.10;61.50
43991;DHT22;29654;50.784;20.604;2024-01-07T19:20:08;0.00;61.40
43991;DHT22;29654;50.784;20.604;2024-01-07T19:25:13;-0.10;61.30
43991;DHT22;29654;50.784;20.604;2024-01-07T19:30:18;-0.10;61.40
43991;DHT22;29654;50.784;20.604;2024-01-07T19:35:22;-0.20;61.50
43991;DHT22;29654;50.784;20.604;2024-01-07T19:40:26;-0.20;61.50
43991;DHT22;29654;50.784;20.604;2024-01-07T19:45:29;-0.20;61.40
43991;DHT22;29654;50.784;20.604;2024-01-07T19:50:32;-0.30;60.90
43991;DHT22;29654;50.784;20.604;2024-01-07T19:55:37;-0.40;60.80
43991;DHT22;29654;50.784;20.604;2024-01-07T20:00:39;-0.50;60.90
43991;DHT22;29654;50.784;20.604;2024-01-07T20:05:43;-0.60;61.10
43991;DHT22;29654;50.784;20.604;2024-01-07T20:10:48;-0.70;61.20
43991;DHT22;29654;50.784;20.604;2024-01-07T20:15:50;-0.80;61.40
43991;DHT22;29654;50.784;20.604;2024-01-07T20:20:54;-0.80;61.20
43991;DHT22;29654;50.784;20.604;2024-01-07T20:25:58;-0.80;61.20
43991;DHT22;29654;50.784;20.604;2024-01-07T20:31:01;-0.90;61.20
43991;DHT22;29654;50.784;20.604;2024-01-07T20:36:07;-1.00;62.00
43991;DHT22;29654;50.784;20.604;2024-01-07T20:41:13;-1.00;61.30
43991;DHT22;29654;50.784;20.604;2024-01-07T20:46:19;-1.10;61.40
43991;DHT22;29654;50.784;20.604;2024-01-07T20:51:22;-1.10;61.40
43991;DHT22;29654;50.784;20.604;2024-01-07T20:56:26;-1.00;61.60
43991;DHT22;29654;50.784;20.604;2024-01-07T21:01:29;-1.00;61.10
43991;DHT22;29654;50.784;20.604;2024-01-07T21:06:37;-1.10;60.80
43991;DHT22;29654;50.784;20.604;2024-01-07T21:11:42;-1.10;60.90
43991;DHT22;29654;50.784;20.604;2024-01-07T21:16:47;-1.10;61.30
43991;DHT22;29654;50.784;20.604;2024-01-07T21:21:50;-1.10;61.10
43991;DHT22;29654;50.784;20.604;2024-01-07T21:26:55;-1.20;61.20
43991;DHT22;29654;50.784;20.604;2024-01-07T21:31:58;-1.20;61.20
43991;DHT22;29654;50.784;20.604;2024-01-07T21:37:00;-1.20;61.20
43991;DHT22;29654;50.784;20.604;2024-01-07T21:42:05;-1.20;61.00
43991;DHT22;29654;50.784;20.604;2024-01-07T21:47:08;-1.20;60.90
43991;DHT22;29654;50.784;20.604;2024-01-07T21:52:11;-1.20;61.20
43991;DHT22;29654;50.784;20.604;2024-01-07T21:57:15;-1.20;61.30
43991;DHT22;29654;50.784;20.604;2024-01-07T22:02:18;-1.10;61.00
43991;DHT22;29654;50.784;20.604;2024-01-07T22:07:22;-1.20;60.70
43991;DHT22;29654;50.784;20.604;2024-01-07T22:12:26;-1.20;60.70
43991;DHT22;29654;50.784;20.604;2024-01-07T22:17:30;-1.20;60.60
43991;DHT22;29654;50.784;20.604;2024-01-07T22:22:34;-1.20;60.40
43991;DHT22;29654;50.784;20.604;2024-01-07T22:27:40;-1.20;60.30
43991;DHT22;29654;50.784;20.604;2024-01-07T22:32:44;-1.30;60.30
43991;DHT22;29654;50.784;20.604;2024-01-07T22:37:49;-1.30;60.40
43991;DHT22;29654;50.784;20.604;2024-01-07T22:42:54;-1.30;60.40
43991;DHT22;29654;50.784;20.604;2024-01-07T22:47:57;-1.30;60.10
43991;DHT22;29654;50.784;20.604;2024-01-07T22:52:59;-1.30;60.20
43991;DHT22;29654;50.784;20.604;2024-01-07T22:58:04;-1.30;60.00
43991;DHT22;29654;50.784;20.604;2024-01-07T23:03:06;-1.40;59.80
43991;DHT22;29654;50.784;20.604;2024-01-07T23:08:11;-1.50;59.90
43991;DHT22;29654;50.784;20.604;2024-01-07T23:13:15;-1.50;59.80
43991;DHT22;29654;50.784;20.604;2024-01-07T23:18:18;-1.60;59.80
43991;DHT22;29654;50.784;20.604;2024-01-07T23:23:21;-1.60;59.80
43991;DHT22;29654;50.784;20.604;2024-01-07T23:28:25;-1.70;59.90
43991;DHT22;29654;50.784;20.604;2024-01-07T23:33:29;-1.70;59.70
43991;DHT22;29654;50.784;20.604;2024-01-07T23:38:31;-1.80;59.60
43991;DHT22;29654;50.784;20.604;2024-01-07T23:43:36;-1.80;59.70
43991;DHT22;29654;50.784;20.604;2024-01-07T23:48:39;-1.90;59.70
43991;DHT22;29654;50.784;20.604;2024-01-07T23:53:42;-1.90;59.70
43991;DHT22;29654;50.784;20.604;2024-01-07T23:58:46;-1.90;59.70
